sensor_id;sensor_type;location;lat;lon;timestamp;pressure;altitude;pressure_sealevel;temperature;humidity
21240;BME280;10778;48.962;9.018;2022-11-30T00:02:23;99408.22;;;5.20;100.00
21240;BME280;10778;48.962;9.018;2022-11-30T00:04:49;99408.97;;;5.22;100.00
21240;BME280;10778;48.962;9.018;2022-11-30T00:07:15;99410.22;;;5.16;100.00
21240;BME280;10778;48.962;9.018;2022-11-30T00:09:41;99410.94;;;5.18;100.00
21240;BME280;10778;48.962;9.018;2022-11-30T00:12:07;99406.75;;;5.16;100.00
21240;BME280;10778;48.962;9.018;2022-11-30T00:14:33;99407.69;;;5.15;100.00
21240;BME280;10778;48.962;9.018;2022-11-30T00:17:00;99407.69;;;5.15;100.00
21240;BME280;10778;48.962;9.018;2022-11-30T00:19:26;99399.03;;;5.14;100.00
21240;BME280;10778;48.962;9.018;2022-11-30T00:21:52;99404.34;;;5.12;100.00
21240;BME280;10778;48.962;9.018;2022-11-30T00:24:18;99392.97;;;5.13;100.00
21240;BME280;10778;48.962;9.018;2022-11-30T00:26:44;99399.13;;;5.12;100.00
21240;BME280;10778;48.962;9.018;2022-11-30T00:29:10;99399.13;;;5.12;100.00
21240;BME280;10778;48.962;9.018;2022-11-30T00:31:36;99401.72;;;5.12;100.00
21240;BME280;10778;48.962;9.018;2022-11-30T00:34:02;99400.25;;;5.08;100.00
21240;BME280;10778;48.962;9.018;2022-11-30T00:36:29;99400.06;;;5.11;100.00
21240;BME280;10778;48.962;9.018;2022-11-30T00:38:55;99401.81;;;5.11;100.00
21240;BME280;10778;48.962;9.018;2022-11-30T00:41:21;99401.66;;;5.14;100.00
21240;BME280;10778;48.962;9.018;2022-11-30T00:43:47;99400.16;;;5.10;100.00
21240;BME280;10778;48.962;9.018;2022-11-30T00:46:13;99406.28;;;5.09;100.00
21240;BME280;10778;48.962;9.018;2022-11-30T00:48:40;99407.97;;;5.10;100.00
21240;BME280;10778;48.962;9.018;2022-11-30T00:51:08;99399.41;;;5.08;100.00
21240;BME280;10778;48.962;9.018;2022-11-30T00:53:34;99400.78;;;5.13;100.00
21240;BME280;10778;48.962;9.018;2022-11-30T00:56:00;99399.31;;;5.09;100.00
21240;BME280;10778;48.962;9.018;2022-11-30T00:58:26;99401.19;;;5.07;100.00
21240;BME280;10778;48.962;9.018;2022-11-30T01:00:52;99401.94;;;5.09;100.00
21240;BME280;10778;48.962;9.018;2022-11-30T01:03:18;99406.50;;;5.06;100.00
21240;BME280;10778;48.962;9.018;2022-11-30T01:05:44;99410.88;;;5.05;100.00
21240;BME280;10778;48.962;9.018;2022-11-30T01:08:11;99406.56;;;5.04;100.00
21240;BME280;10778;48.962;9.018;2022-11-30T01:10:39;99401.28;;;5.06;100.00
21240;BME280;10778;48.962;9.018;2022-11-30T01:13:06;99397.00;;;5.05;100.00
21240;BME280;10778;48.962;9.018;2022-11-30T01:15:36;99402.41;;;5.02;100.00
21240;BME280;10778;48.962;9.018;2022-11-30T01:18:02;99400.34;;;5.07;100.00
21240;BME280;10778;48.962;9.018;2022-11-30T01:20:28;99405.66;;;5.05;100.00
21240;BME280;10778;48.962;9.018;2022-11-30T01:22:55;99411.63;;;5.07;100.00
21240;BME280;10778;48.962;9.018;2022-11-30T01:25:21;99402.94;;;5.07;100.00
21240;BME280;10778;48.962;9.018;2022-11-30T01:27:48;99410.03;;;5.05;100.00
21240;BME280;10778;48.962;9.018;2022-11-30T01:30:14;99412.09;;;5.00;100.00
21240;BME280;10778;48.962;9.018;2022-11-30T01:32:40;99407.69;;;5.00;100.00
21240;BME280;10778;48.962;9.018;2022-11-30T01:35:07;99414.13;;;4.94;100.00
21240;BME280;10778;48.962;9.018;2022-11-30T01:37:34;99414.50;;;4.88;100.00
21240;BME280;10778;48.962;9.018;2022-11-30T01:40:00;99420.47;;;4.90;100.00
21240;BME280;10778;48.962;9.018;2022-11-30T01:42:26;99422.13;;;4.91;100.00
21240;BME280;10778;48.962;9.018;2022-11-30T01:44:59;99419.72;;;4.88;100.00
21240;BME280;10778;48.962;9.018;2022-11-30T01:50:06;99422.25;;;4.90;100.00
21240;BME280;10778;48.962;9.018;2022-11-30T01:52:39;99429.31;;;4.88;100.00
21240;BME280;10778;48.962;9.018;2022-11-30T01:55:13;99424.41;;;4.83;100.00
21240;BME280;10778;48.962;9.018;2022-11-30T01:57:48;99430.22;;;4.87;100.00
21240;BME280;10778;48.962;9.018;2022-11-30T02:00:16;99429.31;;;4.88;100.00
21240;BME280;10778;48.962;9.018;2022-11-30T02:02:58;99433.63;;;4.89;100.00
21240;BME280;10778;48.962;9.018;2022-11-30T02:05:25;99427.47;;;4.90;100.00
21240;BME280;10778;48.962;9.018;2022-11-30T02:07:52;99424.09;;;4.88;100.00
21240;BME280;10778;48.962;9.018;2022-11-30T02:10:24;99431.28;;;4.84;100.00
21240;BME280;10778;48.962;9.018;2022-11-30T02:16:11;99429.59;;;4.83;100.00
21240;BME280;10778;48.962;9.018;2022-11-30T02:18:56;99432.22;;;4.83;100.00
21240;BME280;10778;48.962;9.018;2022-11-30T02:27:10;99435.09;;;4.78;100.00
21240;BME280;10778;48.962;9.018;2022-11-30T02:30:03;99432.69;;;4.75;100.00
21240;BME280;10778;48.962;9.018;2022-11-30T02:32:31;99428.28;;;4.76;100.00
21240;BME280;10778;48.962;9.018;2022-11-30T02:35:00;99430.06;;;4.75;100.00
21240;BME280;10778;48.962;9.018;2022-11-30T02:37:28;99425.97;;;4.71;100.00
21240;BME280;10778;48.962;9.018;2022-11-30T02:39:56;99432.88;;;4.72;100.00
21240;BME280;10778;48.962;9.018;2022-11-30T02:42:22;99431.94;;;4.73;100.00
21240;BME280;10778;48.962;9.018;2022-11-30T02:44:50;99431.00;;;4.74;100.00
21240;BME280;10778;48.962;9.018;2022-11-30T02:47:22;99433.50;;;4.76;100.00
21240;BME280;10778;48.962;9.018;2022-11-30T02:50:36;99434.16;;;4.79;100.00
21240;BME280;10778;48.962;9.018;2022-11-30T02:52:54;99433.59;;;4.74;100.00
21240;BME280;10778;48.962;9.018;2022-11-30T02:55:20;99437.22;;;4.72;100.00
21240;BME280;10778;48.962;9.018;2022-11-30T02:57:47;99430.34;;;4.70;100.00
21240;BME280;10778;48.962;9.018;2022-11-30T03:00:13;99432.19;;;4.68;100.00
21240;BME280;10778;48.962;9.018;2022-11-30T03:02:40;99431.34;;;4.68;100.00
21240;BME280;10778;48.962;9.018;2022-11-30T03:05:07;99433.88;;;4.69;100.00
21240;BME280;10778;48.962;9.018;2022-11-30T03:07:33;99438.25;;;4.69;100.00
21240;BME280;10778;48.962;9.018;2022-11-30T03:09:59;99430.53;;;4.67;100.00
21240;BME280;10778;48.962;9.018;2022-11-30T03:12:26;99437.69;;;4.64;100.00
21240;BME280;10778;48.962;9.018;2022-11-30T03:14:52;99434.16;;;4.65;100.00
21240;BME280;10778;48.962;9.018;2022-11-30T03:17:18;99428.84;;;4.66;100.00
21240;BME280;10778;48.962;9.018;2022-11-30T03:19:44;99431.72;;;4.62;100.00
21240;BME280;10778;48.962;9.018;2022-11-30T03:22:10;99433.31;;;4.64;100.00
21240;BME280;10778;48.962;9.018;2022-11-30T03:24:36;99430.06;;;4.61;100.00
21240;BME280;10778;48.962;9.018;2022-11-30T03:27:02;99431.72;;;4.62;100.00
21240;BME280;10778;48.962;9.018;2022-11-30T03:29:28;99436.88;;;4.63;100.00
21240;BME280;10778;48.962;9.018;2022-11-30T03:31:54;99440.09;;;4.67;100.00
21240;BME280;10778;48.962;9.018;2022-11-30T03:34:20;99441.44;;;4.74;100.00
21240;BME280;10778;48.962;9.018;2022-11-30T03:36:47;99445.41;;;4.65;100.00
21240;BME280;10778;48.962;9.018;2022-11-30T03:39:13;99443.81;;;4.63;100.00
21240;BME280;10778;48.962;9.018;2022-11-30T03:41:39;99442.34;;;4.59;100.00
21240;BME280;10778;48.962;9.018;2022-11-30T03:44:05;99437.31;;;4.55;100.00
21240;BME280;10778;48.962;9.018;2022-11-30T03:46:31;99450.34;;;4.55;100.00
21240;BME280;10778;48.962;9.018;2022-11-30T03:48:57;99446.81;;;4.57;100.00
21240;BME280;10778;48.962;9.018;2022-11-30T03:51:23;99453.78;;;4.56;100.00
21240;BME280;10778;48.962;9.018;2022-11-30T03:53:49;99441.50;;;4.58;100.00
21240;BME280;10778;48.962;9.018;2022-11-30T03:56:15;99443.28;;;4.58;100.00
21240;BME280;10778;48.962;9.018;2022-11-30T03:58:41;99450.91;;;4.61;100.00
21240;BME280;10778;48.962;9.018;2022-11-30T04:03:36;99447.28;;;4.63;100.00
21240;BME280;10778;48.962;9.018;2022-11-30T04:06:02;99449.13;;;4.61;100.00
21240;BME280;10778;48.962;9.018;2022-11-30T04:08:30;99460.59;;;4.59;100.00
21240;BME280;10778;48.962;9.018;2022-11-30T04:10:57;99461.50;;;4.58;100.00
21240;BME280;10778;48.962;9.018;2022-11-30T04:13:26;99456.38;;;4.56;100.00
21240;BME280;10778;48.962;9.018;2022-11-30T04:15:53;99460.47;;;4.60;100.00
21240;BME280;10778;48.962;9.018;2022-11-30T04:18:21;99460.59;;;4.59;100.00
21240;BME280;10778;48.962;9.018;2022-11-30T04:20:52;99455.25;;;4.60;100.00
21240;BME280;10778;48.962;9.018;2022-11-30T04:23:20;99450.22;;;4.57;100.00
21240;BME280;10778;48.962;9.018;2022-11-30T04:25:46;99449.50;;;4.55;100.00
21240;BME280;10778;48.962;9.018;2022-11-30T04:28:13;99451.28;;;4.54;100.00
21240;BME280;10778;48.962;9.018;2022-11-30T04:30:40;99455.06;;;4.49;100.00
21240;BME280;10778;48.962;9.018;2022-11-30T04:33:06;99449.75;;;4.50;100.00
21240;BME280;10778;48.962;9.018;2022-11-30T04:35:32;99453.47;;;4.46;100.00
21240;BME280;10778;48.962;9.018;2022-11-30T04:37:59;99447.91;;;4.52;100.00
21240;BME280;10778;48.962;9.018;2022-11-30T04:40:26;99454.22;;;4.48;100.00
21240;BME280;10778;48.962;9.018;2022-11-30T04:42:51;99451.28;;;4.54;100.00
21240;BME280;10778;48.962;9.018;2022-11-30T04:45:17;99459.25;;;4.51;100.00
21240;BME280;10778;48.962;9.018;2022-11-30T04:47:43;99453.97;;;4.53;100.00
21240;BME280;10778;48.962;9.018;2022-11-30T04:50:09;99452.94;;;4.55;100.00
21240;BME280;10778;48.962;9.018;2022-11-30T04:52:36;99454.50;;;4.44;100.00
21240;BME280;10778;48.962;9.018;2022-11-30T04:55:02;99458.63;;;4.48;100.00
21240;BME280;10778;48.962;9.018;2022-11-30T04:57:29;99461.03;;;4.51;100.00
21240;BME280;10778;48.962;9.018;2022-11-30T04:59:55;99460.47;;;4.46;100.00
21240;BME280;10778;48.962;9.018;2022-11-30T05:02:21;99461.22;;;4.48;100.00
21240;BME280;10778;48.962;9.018;2022-11-30T05:04:48;99456.75;;;4.50;100.00
21240;BME280;10778;48.962;9.018;2022-11-30T05:07:14;99462.03;;;4.48;100.00
21240;BME280;10778;48.962;9.018;2022-11-30T05:09:40;99451.88;;;4.44;100.00
21240;BME280;10778;48.962;9.018;2022-11-30T05:12:06;99457.69;;;4.49;100.00
21240;BME280;10778;48.962;9.018;2022-11-30T05:14:32;99457.69;;;4.49;100.00
21240;BME280;10778;48.962;9.018;2022-11-30T05:16:58;99453.41;;;4.48;100.00
21240;BME280;10778;48.962;9.018;2022-11-30T05:19:24;99458.69;;;4.46;100.00
21240;BME280;10778;48.962;9.018;2022-11-30T05:21:50;99462.78;;;4.50;100.00
21240;BME280;10778;48.962;9.018;2022-11-30T05:24:16;99470.91;;;4.46;100.00
21240;BME280;10778;48.962;9.018;2022-11-30T05:26:42;99465.75;;;4.44;100.00
21240;BME280;10778;48.962;9.018;2022-11-30T05:29:08;99467.38;;;4.47;100.00
21240;BME280;10778;48.962;9.018;2022-11-30T05:31:37;99469.78;;;4.50;100.00
21240;BME280;10778;48.962;9.018;2022-11-30T05:34:03;99476.56;;;4.52;100.00
21240;BME280;10778;48.962;9.018;2022-11-30T05:36:29;99484.28;;;4.54;100.00
21240;BME280;10778;48.962;9.018;2022-11-30T05:38:55;99490.25;;;4.56;100.00
21240;BME280;10778;48.962;9.018;2022-11-30T05:41:21;99488.66;;;4.53;100.00
21240;BME280;10778;48.962;9.018;2022-11-30T05:43:47;99485.97;;;4.55;100.00
21240;BME280;10778;48.962;9.018;2022-11-30T05:46:13;99485.63;;;4.76;100.00
21240;BME280;10778;48.962;9.018;2022-11-30T05:48:39;99486.00;;;5.42;100.00
21240;BME280;10778;48.962;9.018;2022-11-30T05:51:06;99478.06;;;5.58;100.00
21240;BME280;10778;48.962;9.018;2022-11-30T05:53:32;99480.81;;;5.69;100.00
21240;BME280;10778;48.962;9.018;2022-11-30T05:56:09;99470.34;;;6.11;100.00
21240;BME280;10778;48.962;9.018;2022-11-30T05:58:36;99472.09;;;6.25;100.00
21240;BME280;10778;48.962;9.018;2022-11-30T06:01:02;99472.69;;;6.29;100.00
21240;BME280;10778;48.962;9.018;2022-11-30T06:03:30;99474.94;;;6.48;100.00
21240;BME280;10778;48.962;9.018;2022-11-30T06:05:56;99474.44;;;6.16;100.00
21240;BME280;10778;48.962;9.018;2022-11-30T06:08:23;99476.44;;;6.25;100.00
21240;BME280;10778;48.962;9.018;2022-11-30T06:10:49;99479.63;;;6.03;100.00
21240;BME280;10778;48.962;9.018;2022-11-30T06:13:15;99475.72;;;5.95;100.00
21240;BME280;10778;48.962;9.018;2022-11-30T06:15:42;99469.13;;;6.17;100.00
21240;BME280;10778;48.962;9.018;2022-11-30T06:18:10;99481.34;;;6.17;100.00
21240;BME280;10778;48.962;9.018;2022-11-30T06:20:36;99477.69;;;5.92;100.00
21240;BME280;10778;48.962;9.018;2022-11-30T06:23:03;99476.59;;;5.81;100.00
21240;BME280;10778;48.962;9.018;2022-11-30T06:25:29;99471.81;;;5.46;100.00
21240;BME280;10778;48.962;9.018;2022-11-30T06:27:55;99479.13;;;5.26;100.00
21240;BME280;10778;48.962;9.018;2022-11-30T06:30:21;99477.56;;;5.09;100.00
21240;BME280;10778;48.962;9.018;2022-11-30T06:32:49;99479.31;;;4.94;100.00
21240;BME280;10778;48.962;9.018;2022-11-30T06:35:17;99477.16;;;4.87;100.00
21240;BME280;10778;48.962;9.018;2022-11-30T06:37:43;99480.53;;;4.89;100.00
21240;BME280;10778;48.962;9.018;2022-11-30T06:40:11;99471.78;;;4.75;100.00
21240;BME280;10778;48.962;9.018;2022-11-30T06:42:38;99471.19;;;4.70;100.00
21240;BME280;10778;48.962;9.018;2022-11-30T06:45:06;99474.91;;;4.66;100.00
21240;BME280;10778;48.962;9.018;2022-11-30T06:47:32;99471.94;;;4.58;100.00
21240;BME280;10778;48.962;9.018;2022-11-30T06:49:58;99473.16;;;4.66;100.00
21240;BME280;10778;48.962;9.018;2022-11-30T06:52:24;99476.78;;;4.64;100.00
21240;BME280;10778;48.962;9.018;2022-11-30T06:54:50;99478.25;;;4.68;100.00
21240;BME280;10778;48.962;9.018;2022-11-30T06:57:16;99478.09;;;4.71;100.00
21240;BME280;10778;48.962;9.018;2022-11-30T06:59:42;99482.72;;;4.66;100.00
21240;BME280;10778;48.962;9.018;2022-11-30T07:02:11;99481.50;;;4.57;100.00
21240;BME280;10778;48.962;9.018;2022-11-30T07:04:37;99484.78;;;4.61;100.00
21240;BME280;10778;48.962;9.018;2022-11-30T07:07:04;99485.03;;;4.56;100.00
21240;BME280;10778;48.962;9.018;2022-11-30T07:09:30;99480.38;;;4.61;100.00
21240;BME280;10778;48.962;9.018;2022-11-30T07:11:57;99490.47;;;4.67;100.00
21240;BME280;10778;48.962;9.018;2022-11-30T07:14:23;99490.28;;;4.70;100.00
21240;BME280;10778;48.962;9.018;2022-11-30T07:16:50;99498.38;;;4.66;100.00
21240;BME280;10778;48.962;9.018;2022-11-30T07:19:17;99488.06;;;4.64;100.00
21240;BME280;10778;48.962;9.018;2022-11-30T07:21:43;99486.47;;;4.62;100.00
21240;BME280;10778;48.962;9.018;2022-11-30T07:24:13;99484.59;;;4.64;100.00
21240;BME280;10778;48.962;9.018;2022-11-30T07:26:59;99483.66;;;4.65;100.00
21240;BME280;10778;48.962;9.018;2022-11-30T07:29:26;99486.00;;;4.69;100.00
21240;BME280;10778;48.962;9.018;2022-11-30T07:31:53;99490.56;;;4.66;100.00
21240;BME280;10778;48.962;9.018;2022-11-30T07:34:20;99498.28;;;4.67;100.00
21240;BME280;10778;48.962;9.018;2022-11-30T07:36:46;99487.88;;;4.67;100.00
21240;BME280;10778;48.962;9.018;2022-11-30T07:39:13;99491.22;;;4.69;100.00
21240;BME280;10778;48.962;9.018;2022-11-30T07:41:40;99492.63;;;4.75;100.00
21240;BME280;10778;48.962;9.018;2022-11-30T07:47:33;99494.66;;;4.84;100.00
21240;BME280;10778;48.962;9.018;2022-11-30T07:49:59;99497.28;;;4.84;100.00
21240;BME280;10778;48.962;9.018;2022-11-30T07:52:25;99496.19;;;4.89;100.00
21240;BME280;10778;48.962;9.018;2022-11-30T07:54:51;99503.91;;;4.90;100.00
21240;BME280;10778;48.962;9.018;2022-11-30T07:57:17;99502.69;;;4.81;100.00
21240;BME280;10778;48.962;9.018;2022-11-30T07:59:43;99506.31;;;4.93;100.00
21240;BME280;10778;48.962;9.018;2022-11-30T08:02:09;99503.56;;;4.96;100.00
21240;BME280;10778;48.962;9.018;2022-11-30T08:04:35;99513.41;;;4.91;100.00
21240;BME280;10778;48.962;9.018;2022-11-30T08:07:01;99501.22;;;4.92;100.00
21240;BME280;10778;48.962;9.018;2022-11-30T08:09:27;99510.03;;;4.89;100.00
21240;BME280;10778;48.962;9.018;2022-11-30T08:11:53;99514.25;;;4.92;100.00
21240;BME280;10778;48.962;9.018;2022-11-30T08:14:19;99518.88;;;4.87;100.00
21240;BME280;10778;48.962;9.018;2022-11-30T08:16:45;99523.00;;;4.91;100.00
21240;BME280;10778;48.962;9.018;2022-11-30T08:19:12;99516.47;;;4.98;100.00
21240;BME280;10778;48.962;9.018;2022-11-30T08:21:38;99510.63;;;5.80;100.00
21240;BME280;10778;48.962;9.018;2022-11-30T08:24:04;99519.28;;;5.38;100.00
21240;BME280;10778;48.962;9.018;2022-11-30T08:26:32;99517.97;;;5.31;100.00
21240;BME280;10778;48.962;9.018;2022-11-30T08:28:59;99512.69;;;5.33;100.00
21240;BME280;10778;48.962;9.018;2022-11-30T08:31:28;99523.38;;;5.28;100.00
21240;BME280;10778;48.962;9.018;2022-11-30T08:33:55;99526.94;;;5.27;100.00
21240;BME280;10778;48.962;9.018;2022-11-30T08:36:22;99525.16;;;5.27;100.00
21240;BME280;10778;48.962;9.018;2022-11-30T08:38:49;99527.75;;;5.27;100.00
21240;BME280;10778;48.962;9.018;2022-11-30T08:41:18;99526.75;;;5.30;100.00
21240;BME280;10778;48.962;9.018;2022-11-30T08:43:45;99531.03;;;5.31;100.00
21240;BME280;10778;48.962;9.018;2022-11-30T08:46:13;99528.59;;;5.28;100.00
21240;BME280;10778;48.962;9.018;2022-11-30T08:48:39;99531.22;;;5.28;100.00
21240;BME280;10778;48.962;9.018;2022-11-30T08:51:09;99529.91;;;5.35;100.00
21240;BME280;10778;48.962;9.018;2022-11-30T08:53:36;99536.72;;;5.38;100.00
21240;BME280;10778;48.962;9.018;2022-11-30T08:56:14;99535.59;;;5.42;100.00
21240;BME280;10778;48.962;9.018;2022-11-30T08:58:40;99536.16;;;5.33;100.00
21240;BME280;10778;48.962;9.018;2022-11-30T09:01:26;99545.66;;;5.34;100.00
21240;BME280;10778;48.962;9.018;2022-11-30T09:03:54;99542.94;;;5.50;100.00
21240;BME280;10778;48.962;9.018;2022-11-30T09:06:24;99547.69;;;5.43;100.00
21240;BME280;10778;48.962;9.018;2022-11-30T09:08:51;99546.88;;;5.43;100.00
21240;BME280;10778;48.962;9.018;2022-11-30T09:11:22;99544.41;;;5.54;100.00
21240;BME280;10778;48.962;9.018;2022-11-30T09:13:49;99543.31;;;5.58;100.00
21240;BME280;10778;48.962;9.018;2022-11-30T09:16:17;99551.78;;;5.62;100.00
21240;BME280;10778;48.962;9.018;2022-11-30T09:18:44;99549.16;;;5.62;100.00
21240;BME280;10778;48.962;9.018;2022-11-30T09:21:12;99552.44;;;5.65;100.00
21240;BME280;10778;48.962;9.018;2022-11-30T09:23:39;99559.72;;;5.60;100.00
21240;BME280;10778;48.962;9.018;2022-11-30T09:26:10;99558.69;;;5.63;100.00
21240;BME280;10778;48.962;9.018;2022-11-30T09:28:37;99556.34;;;5.73;100.00
21240;BME280;10778;48.962;9.018;2022-11-30T09:31:07;99562.22;;;5.62;100.00
21240;BME280;10778;48.962;9.018;2022-11-30T09:33:33;99569.22;;;5.61;100.00
21240;BME280;10778;48.962;9.018;2022-11-30T09:36:04;99559.72;;;5.75;100.00
21240;BME280;10778;48.962;9.018;2022-11-30T09:38:31;99565.94;;;5.72;100.00
21240;BME280;10778;48.962;9.018;2022-11-30T09:40:59;99562.47;;;5.86;100.00
21240;BME280;10778;48.962;9.018;2022-11-30T09:46:01;99553.50;;;6.05;100.00
21240;BME280;10778;48.962;9.018;2022-11-30T09:51:21;99555.75;;;6.11;100.00
21240;BME280;10778;48.962;9.018;2022-11-30T09:54:03;99554.06;;;6.10;100.00
21240;BME280;10778;48.962;9.018;2022-11-30T09:56:39;99544.25;;;5.99;100.00
21240;BME280;10778;48.962;9.018;2022-11-30T09:59:12;99556.41;;;5.86;100.00
21240;BME280;10778;48.962;9.018;2022-11-30T10:01:42;99551.69;;;5.78;100.00
21240;BME280;10778;48.962;9.018;2022-11-30T10:04:23;99552.91;;;5.72;100.00
21240;BME280;10778;48.962;9.018;2022-11-30T10:06:59;99555.31;;;5.75;100.00
21240;BME280;10778;48.962;9.018;2022-11-30T10:10:35;99548.59;;;5.71;100.00
21240;BME280;10778;48.962;9.018;2022-11-30T10:17:33;99545.88;;;5.87;100.00
21240;BME280;10778;48.962;9.018;2022-11-30T10:20:26;99540.88;;;6.11;100.00
21240;BME280;10778;48.962;9.018;2022-11-30T10:25:23;99547.78;;;6.12;100.00
21240;BME280;10778;48.962;9.018;2022-11-30T10:27:53;99542.72;;;6.24;100.00
21240;BME280;10778;48.962;9.018;2022-11-30T10:30:24;99541.94;;;6.36;100.00
21240;BME280;10778;48.962;9.018;2022-11-30T10:32:52;99530.25;;;6.42;100.00
21240;BME280;10778;48.962;9.018;2022-11-30T10:35:32;99540.06;;;6.51;100.00
21240;BME280;10778;48.962;9.018;2022-11-30T10:38:03;99538.19;;;6.53;100.00
21240;BME280;10778;48.962;9.018;2022-11-30T10:40:47;99528.34;;;6.44;100.00
21240;BME280;10778;48.962;9.018;2022-11-30T10:45:53;99535.31;;;6.31;100.00
21240;BME280;10778;48.962;9.018;2022-11-30T10:51:01;99530.59;;;6.23;100.00
21240;BME280;10778;48.962;9.018;2022-11-30T10:53:28;99536.47;;;6.26;100.00
21240;BME280;10778;48.962;9.018;2022-11-30T10:58:27;99523.00;;;6.46;100.00
21240;BME280;10778;48.962;9.018;2022-11-30T11:01:08;99521.34;;;6.45;100.00
21240;BME280;10778;48.962;9.018;2022-11-30T11:03:35;99515.81;;;6.49;100.00
21240;BME280;10778;48.962;9.018;2022-11-30T11:08:35;99517.34;;;6.39;100.00
21240;BME280;10778;48.962;9.018;2022-11-30T11:11:01;99512.81;;;6.28;100.00
21240;BME280;10778;48.962;9.018;2022-11-30T11:13:35;99524.72;;;6.19;100.00
21240;BME280;10778;48.962;9.018;2022-11-30T11:16:02;99517.41;;;6.24;100.00
21240;BME280;10778;48.962;9.018;2022-11-30T11:18:30;99530.38;;;6.26;100.00
21240;BME280;10778;48.962;9.018;2022-11-30T11:21:04;99526.94;;;6.25;100.00
21240;BME280;10778;48.962;9.018;2022-11-30T11:23:36;99525.00;;;6.15;100.00
21240;BME280;10778;48.962;9.018;2022-11-30T11:26:06;99518.44;;;6.09;100.00
21240;BME280;10778;48.962;9.018;2022-11-30T11:28:35;99521.91;;;6.22;100.00
21240;BME280;10778;48.962;9.018;2022-11-30T11:33:58;99518.25;;;6.25;100.00
21240;BME280;10778;48.962;9.018;2022-11-30T11:36:33;99524.63;;;6.21;100.00
21240;BME280;10778;48.962;9.018;2022-11-30T11:39:02;99521.91;;;6.22;100.00
21240;BME280;10778;48.962;9.018;2022-11-30T11:41:36;99519.59;;;6.18;100.00
21240;BME280;10778;48.962;9.018;2022-11-30T11:46:53;99533.50;;;6.18;100.00
21240;BME280;10778;48.962;9.018;2022-11-30T11:49:28;99530.09;;;6.31;100.00
21240;BME280;10778;48.962;9.018;2022-11-30T11:54:49;99525.41;;;6.36;100.00
21240;BME280;10778;48.962;9.018;2022-11-30T11:57:20;99518.44;;;6.49;100.00
21240;BME280;10778;48.962;9.018;2022-11-30T11:59:59;99524.09;;;6.56;100.00
21240;BME280;10778;48.962;9.018;2022-11-30T12:05:17;99516.47;;;6.53;100.00
21240;BME280;10778;48.962;9.018;2022-11-30T12:11:08;99524.91;;;6.44;100.00
21240;BME280;10778;48.962;9.018;2022-11-30T12:13:40;99519.53;;;6.32;100.00
21240;BME280;10778;48.962;9.018;2022-11-30T12:19:07;99512.84;;;6.41;100.00
21240;BME280;10778;48.962;9.018;2022-11-30T12:30:28;99512.91;;;6.67;100.00
21240;BME280;10778;48.962;9.018;2022-11-30T12:33:16;99511.56;;;6.74;100.00
21240;BME280;10778;48.962;9.018;2022-11-30T12:36:12;99518.97;;;6.67;100.00
21240;BME280;10778;48.962;9.018;2022-11-30T12:38:57;99517.63;;;6.62;100.00
21240;BME280;10778;48.962;9.018;2022-11-30T12:50:06;99510.78;;;6.46;100.00
21240;BME280;10778;48.962;9.018;2022-11-30T12:53:00;99510.25;;;6.41;100.00
21240;BME280;10778;48.962;9.018;2022-11-30T12:55:52;99512.44;;;6.34;100.00
21240;BME280;10778;48.962;9.018;2022-11-30T13:04:24;99509.75;;;6.08;100.00
21240;BME280;10778;48.962;9.018;2022-11-30T13:07:03;99508.81;;;5.95;100.00
21240;BME280;10778;48.962;9.018;2022-11-30T13:09:51;99514.16;;;5.93;100.00
21240;BME280;10778;48.962;9.018;2022-11-30T13:12:28;99511.22;;;5.98;100.00
21240;BME280;10778;48.962;9.018;2022-11-30T13:15:04;99512.47;;;5.92;100.00
21240;BME280;10778;48.962;9.018;2022-11-30T13:17:31;99504.53;;;5.94;100.00
21240;BME280;10778;48.962;9.018;2022-11-30T13:22:51;99509.66;;;5.95;100.00
21240;BME280;10778;48.962;9.018;2022-11-30T13:25:55;99506.22;;;5.95;100.00
21240;BME280;10778;48.962;9.018;2022-11-30T13:28:41;99502.56;;;5.97;100.00
21240;BME280;10778;48.962;9.018;2022-11-30T13:31:30;99509.09;;;5.90;100.00
21240;BME280;10778;48.962;9.018;2022-11-30T13:34:00;99512.84;;;5.86;100.00
21240;BME280;10778;48.962;9.018;2022-11-30T13:39:23;99517.34;;;5.84;100.00
21240;BME280;10778;48.962;9.018;2022-11-30T13:44:34;99525.63;;;5.91;100.00
21240;BME280;10778;48.962;9.018;2022-11-30T13:47:28;99523.88;;;5.91;100.00
21240;BME280;10778;48.962;9.018;2022-11-30T13:49:57;99522.81;;;5.94;100.00
21240;BME280;10778;48.962;9.018;2022-11-30T13:58:16;99521.53;;;5.87;100.00
21240;BME280;10778;48.962;9.018;2022-11-30T14:05:51;99521.63;;;5.85;100.00
21240;BME280;10778;48.962;9.018;2022-11-30T14:10:54;99524.97;;;5.87;100.00
21240;BME280;10778;48.962;9.018;2022-11-30T14:23:20;99522.31;;;5.74;100.00
21240;BME280;10778;48.962;9.018;2022-11-30T14:25:50;99527.00;;;5.69;100.00
21240;BME280;10778;48.962;9.018;2022-11-30T14:28:19;99526.88;;;5.70;100.00
21240;BME280;10778;48.962;9.018;2022-11-30T14:30:47;99518.88;;;5.74;100.00
21240;BME280;10778;48.962;9.018;2022-11-30T14:33:25;99530.34;;;5.71;100.00
21240;BME280;10778;48.962;9.018;2022-11-30T14:35:55;99533.88;;;5.70;100.00
21240;BME280;10778;48.962;9.018;2022-11-30T14:38:29;99534.41;;;5.75;100.00
21240;BME280;10778;48.962;9.018;2022-11-30T14:40:56;99529.84;;;5.79;100.00
21240;BME280;10778;48.962;9.018;2022-11-30T14:43:23;99532.09;;;5.70;100.00
21240;BME280;10778;48.962;9.018;2022-11-30T14:46:04;99530.63;;;5.66;100.00
21240;BME280;10778;48.962;9.018;2022-11-30T14:48:30;99533.41;;;5.63;100.00
21240;BME280;10778;48.962;9.018;2022-11-30T14:51:01;99535.19;;;5.63;100.00
21240;BME280;10778;48.962;9.018;2022-11-30T14:54:42;99537.44;;;5.54;100.00
21240;BME280;10778;48.962;9.018;2022-11-30T14:56:41;99539.13;;;5.55;100.00
21240;BME280;10778;48.962;9.018;2022-11-30T14:59:50;99538.66;;;5.63;100.00
21240;BME280;10778;48.962;9.018;2022-11-30T15:02:32;99529.88;;;5.64;100.00
21240;BME280;10778;48.962;9.018;2022-11-30T15:05:00;99529.88;;;5.64;100.00
21240;BME280;10778;48.962;9.018;2022-11-30T15:07:27;99528.47;;;5.59;100.00